罗盘
风向 的 风向 的 风向 到 风向 190° Winters Aire Park Airport 9/27
风: 4 kt, 2 beaufort

1 kt

4 kt
改变
0 6.000 12.000 18.000 24.000 30.000
FEW 30.000 ft
METAR CYYC 252000Z 19004KT 100V220 40SM FEW300 20/00 A3018 RMK CI2 SLP230 DENSITY ALT 4800FT

METAR Winters Aire Park Airport - CFY4

Winters Aire Park Airport是Indus,加拿大中的小机场。 该机场有2条跑道: 9/27 和 16/34. 该领域的国际民航组织标志是CFY4.

这份报告是针对2022年9月25日 2:00 下午, 当地时间在Calgary International Airport进行的。

机场观察

风向为190°,速度为4 kt。 风向在100°和220°之间变化。

可见度为40 mi。

有几云在30.000 ft的高度。 没有观察到天花板。

温度和风寒是68 °F。 海平面上的气压为30,18 inHg (QNH)。

白天

今天,太阳从7:26 上午升起,在7:26 下午降落。 这适用于Winters Aire Park Airport,世界夏令时可能有所不同。 当地时间与世界标准时间之间的时差为-6 小时。 夏令时目前正在进行中。

公司介绍

我们没有关于这个机场的公司信息。

体会

到Vliegles.nl去找飞行课程,跳伞和其他飞行体验。 浏览页面,了解Winters Aire Park Airport附近所有可用的活动。 你也可以使用搜索功能来寻找你所在地附近的特定飞行课程、跳伞或其他飞行体验。

跑道

Id 标题 侧风 逆风 侧风 %
9/27 090°-270° 4 kt 98 %
16/34 160°-340° 2 kt 3 kt 50 %

逆风成分最大的方向会被突出显示,并用于横风计算。 这并不一定意味着这个方向在使用。

乌云

30.000 ft FEW 几云

温度 & 天气

温度 68 °F
露点 32 °F
相对湿度 26%
Kp-index 0  

评论

SLP230海平面压力为30,21 inHg (30,21 inHg)
CI2 DENSITY ALT 4800FT

白天

日出
7:27 上午
中午
1:27 下午
日落
7:27 下午 (4h 44m)

小工具

你想在你的网站上有一个关于Winters Aire Park Airport的当前航空天气(METAR)的小部件吗?

</> 显示HTML代码

我们和第三方通过cookies跟踪您在我们网站上的上网行为。如果您继续,我们认为您同意我们的cookie政策。 了解更多